Time;durP1;ratioP1;P1;durP2;ratioP2;P2;SDS_P1;SDS_P2;PMS_P1;PMS_P2;Temp;Humidity;BMP_temperature;BMP_pressure;BME280_temperature;BME280_humidity;BME280_pressure;Samples;Min_cycle;Max_cycle;Signal;HPM_P1;HPM_P2
2023/10/19 00:06:07;;;;;;;18.97;18.37;;;;;;;-141.02;100.00;37468.78;5115645;28;20257;-70
2023/10/19 00:08:36;;;;;;;18.67;18.07;;;;;;;-141.02;100.00;37436.19;5115888;28;20197;-64
2023/10/19 00:11:08;;;;;;;18.73;18.13;;;;;;;-141.02;100.00;37380.59;5115673;28;20208;-66
2023/10/19 00:13:35;;;;;;;18.60;18.00;;;;;;;-141.02;100.00;37392.09;5115920;28;20250;-70
2023/10/19 00:16:11;;;;;;;18.40;17.80;;;;;;;-141.02;100.00;37346.09;5115711;28;20262;-70
2023/10/19 00:18:42;;;;;;;18.50;17.90;;;;;;;-141.02;100.00;37300.09;5115675;28;20708;-71
2023/10/19 00:21:18;;;;;;;18.67;18.07;;;;;;;-141.02;100.00;37273.28;5115737;28;20258;-71
2023/10/19 00:23:47;;;;;;;14.43;14.03;;;;;;;-141.02;100.00;37246.44;5115823;28;20189;-65
2023/10/19 00:26:19;;;;;;;20.43;19.73;;;;;;;-141.02;100.00;37277.09;5115456;28;20543;-68
2023/10/19 00:29:40;;;;;;;19.70;19.00;;;;;;;-141.02;100.00;37257.94;5115238;28;20220;-70
2023/10/19 00:38:53;;;;;;;18.77;18.17;;;;;;;-141.02;100.00;37142.94;5115489;28;20270;-67
2023/10/19 00:41:24;;;;;;;17.90;17.30;;;;;;;-141.02;100.00;37079.69;5114972;28;20204;-68
2023/10/19 00:43:57;;;;;;;17.90;17.30;;;;;;;-141.02;100.00;37104.63;5115786;28;20191;-65
2023/10/19 00:46:31;;;;;;;17.50;16.97;;;;;;;-141.02;100.00;37073.94;5115468;28;20191;-70
2023/10/19 00:49:54;;;;;;;18.00;17.40;;;;;;;-141.02;100.00;37102.69;5115343;28;20261;-70
2023/10/19 00:52:24;;;;;;;19.40;18.80;;;;;;;-141.02;100.00;37087.38;5114747;28;20189;-70
2023/10/19 00:54:58;;;;;;;18.30;17.70;;;;;;;-141.02;100.00;37093.13;5104723;28;20761;-70
2023/10/19 00:57:34;;;;;;;18.40;17.80;;;;;;;-141.02;100.00;37085.44;5113897;28;20188;-65
2023/10/19 01:02:45;;;;;;;18.70;18.10;;;;;;;-141.02;100.00;37077.78;5114510;28;20233;-70
2023/10/19 01:05:40;;;;;;;18.13;17.53;;;;;;;-141.02;100.00;37047.13;5115200;28;20297;-64
2023/10/19 01:11:30;;;;;;;16.97;16.47;;;;;;;-141.02;100.00;37012.63;5114920;28;20180;-70
2023/10/19 01:20:55;;;;;;;17.60;17.03;;;;;;;-141.02;100.00;36970.47;5115155;28;20181;-69
2023/10/19 01:26:47;;;;;;;13.60;13.20;;;;;;;-141.02;100.00;36974.31;5114459;28;20268;-71
2023/10/19 01:29:32;;;;;;;16.10;15.60;;;;;;;-141.02;100.00;37004.97;5114198;28;20688;-66
2023/10/19 01:35:22;;;;;;;16.17;15.67;;;;;;;-141.02;100.00;36993.47;5114264;28;20207;-68
2023/10/19 01:44:04;;;;;;;17.53;16.97;;;;;;;-141.02;100.00;37104.63;5083121;28;20245;-71
2023/10/19 01:47:00;;;;;;;17.73;17.13;;;;;;;-141.02;100.00;37108.44;5091885;28;20189;-71
2023/10/19 01:52:54;;;;;;;17.57;17.03;;;;;;;-141.02;100.00;37100.78;5091917;28;20713;-70
2023/10/19 01:55:23;;;;;;;16.80;16.30;;;;;;;-141.02;100.00;37118.03;5087889;28;20633;-71
2023/10/19 01:58:21;;;;;;;17.17;16.67;;;;;;;-141.02;100.00;37125.69;5091312;28;20202;-72
2023/10/19 02:04:14;;;;;;;18.77;18.17;;;;;;;-141.02;100.00;37160.19;5096225;28;20230;-66
2023/10/19 02:10:15;;;;;;;20.77;20.07;;;;;;;-141.02;100.00;37179.34;5113764;28;20225;-71
2023/10/19 02:16:12;;;;;;;21.87;21.07;;;;;;;-141.02;100.00;37156.38;5113468;28;20241;-71
2023/10/19 02:22:07;;;;;;;20.13;19.43;;;;;;;-141.02;100.00;37158.28;5113493;28;20709;-71
2023/10/19 02:28:29;;;;;;;14.67;14.27;;;;;;;-141.02;100.00;37131.44;5113193;28;20237;-71
2023/10/19 02:31:30;;;;;;;17.27;16.77;;;;;;;-141.02;100.00;37119.94;5091137;28;20198;-69
2023/10/19 02:34:49;;;;;;;17.40;16.90;;;;;;;-141.02;100.00;37139.13;5090986;28;20190;-71
2023/10/19 02:40:41;;;;;;;20.20;19.50;;;;;;;-141.02;100.00;37119.94;5090661;28;20229;-72
2023/10/19 02:43:47;;;;;;;20.20;19.50;;;;;;;-141.02;100.00;37146.78;5090624;28;20193;-71
2023/10/19 02:49:39;;;;;;;18.97;18.37;;;;;;;-141.02;100.00;37142.94;5103978;28;20239;-71
2023/10/19 02:52:16;;;;;;;18.67;18.07;;;;;;;-141.02;100.00;37104.63;5113061;28;20181;-65
2023/10/19 02:54:42;;;;;;;18.63;18.03;;;;;;;-141.02;100.00;37146.78;5112849;28;20193;-68
2023/10/19 02:57:13;;;;;;;17.83;17.23;;;;;;;-141.02;100.00;37162.13;5112503;28;20579;-69
2023/10/19 02:59:39;;;;;;;20.67;19.97;;;;;;;-141.02;100.00;37185.09;5112604;28;20220;-68
2023/10/19 03:02:16;;;;;;;21.13;20.43;;;;;;;-141.02;100.00;37185.09;5112771;28;20553;-69
2023/10/19 03:04:43;;;;;;;18.07;17.47;;;;;;;-141.02;100.00;37208.09;5112726;28;20646;-70
2023/10/19 03:07:12;;;;;;;18.17;17.57;;;;;;;-141.02;100.00;37273.28;5113055;28;20207;-69
2023/10/19 03:09:38;;;;;;;19.63;19.00;;;;;;;-141.02;100.00;37211.94;5113218;28;20209;-70
2023/10/19 03:12:10;;;;;;;20.00;19.30;;;;;;;-141.02;100.00;37219.59;5113292;28;20204;-69
2023/10/19 03:15:21;;;;;;;21.23;20.53;;;;;;;-141.02;100.00;37231.09;5112891;28;20284;-69
2023/10/19 03:18:42;;;;;;;19.03;18.43;;;;;;;-141.02;100.00;37246.44;5112855;28;20272;-68
2023/10/19 03:28:12;;;;;;;19.33;18.73;;;;;;;-141.02;100.00;37192.78;5112588;28;20699;-68
2023/10/19 03:30:40;;;;;;;25.77;24.77;;;;;;;-141.02;100.00;37246.44;5112453;28;20200;-69
2023/10/19 03:33:08;;;;;;;26.00;25.00;;;;;;;-141.02;100.00;37221.53;5112861;28;20194;-68
2023/10/19 03:35:37;;;;;;;26.43;25.43;;;;;;;-141.02;100.00;37246.44;5112863;28;20276;-69
2023/10/19 03:38:22;;;;;;;23.27;22.37;;;;;;;-141.02;100.00;37256.03;5115500;28;20575;-68
2023/10/19 03:40:58;;;;;;;22.00;21.20;;;;;;;-141.02;100.00;37269.44;5116090;28;20209;-68
2023/10/19 03:43:27;;;;;;;24.40;23.50;;;;;;;-141.02;100.00;37254.09;5115976;28;20245;-68
2023/10/19 03:45:58;;;;;;;18.67;18.07;;;;;;;-141.02;100.00;37269.44;5116014;28;20190;-63
2023/10/19 03:48:26;;;;;;;22.00;21.20;;;;;;;-141.02;100.00;37267.53;5116316;28;20239;-68
2023/10/19 03:50:56;;;;;;;17.90;17.30;;;;;;;-141.02;100.00;37311.59;5116095;28;20702;-69
2023/10/19 03:53:24;;;;;;;17.10;16.60;;;;;;;-141.02;100.00;37302.03;5115952;28;20200;-67
2023/10/19 03:55:52;;;;;;;15.80;15.30;;;;;;;-141.02;100.00;37315.44;5116193;28;20307;-68
2023/10/19 03:58:21;;;;;;;17.30;16.80;;;;;;;-141.02;100.00;37315.44;5116502;28;20196;-69
2023/10/19 04:00:49;;;;;;;14.87;14.47;;;;;;;-141.02;100.00;37315.44;5115699;28;20623;-69
2023/10/19 04:03:18;;;;;;;16.90;16.40;;;;;;;-141.02;100.00;37359.53;5115964;28;20196;-69
2023/10/19 04:05:46;;;;;;;17.93;17.33;;;;;;;-141.02;100.00;37372.94;5115966;28;20683;-69
2023/10/19 04:08:20;;;;;;;24.47;23.57;;;;;;;-141.02;100.00;37376.78;5116321;28;20224;-68
2023/10/19 04:11:08;;;;;;;21.63;20.87;;;;;;;-141.02;100.00;37367.19;5116751;27;20189;-68
2023/10/19 04:13:36;;;;;;;18.37;17.77;;;;;;;-141.02;100.00;37346.09;5115875;28;20201;-68
2023/10/19 04:16:05;;;;;;;23.70;22.80;;;;;;;-141.02;100.00;37376.78;5115327;28;20612;-69
2023/10/19 04:18:33;;;;;;;22.80;22.00;;;;;;;-141.02;100.00;37346.09;5115909;28;20197;-68
2023/10/19 04:21:03;;;;;;;26.20;25.20;;;;;;;-141.02;100.00;37376.78;5115377;28;20311;-68
2023/10/19 04:23:34;;;;;;;15.27;14.87;;;;;;;-141.02;100.00;37401.69;5115566;28;20663;-69
2023/10/19 04:26:04;;;;;;;17.17;16.67;;;;;;;-141.02;100.00;37403.59;5115972;28;20185;-69
2023/10/19 04:28:37;;;;;;;18.87;18.27;;;;;;;-141.02;100.00;37405.53;5115901;28;20197;-69
2023/10/19 04:31:06;;;;;;;18.20;17.60;;;;;;;-141.02;100.00;37486.03;5115931;27;20211;-70
2023/10/19 04:33:34;;;;;;;16.07;15.57;;;;;;;-141.02;100.00;37585.69;5115456;28;20224;-68
2023/10/19 04:36:02;;;;;;;17.93;17.33;;;;;;;-141.02;100.00;37618.28;5115015;28;20208;-68
2023/10/19 04:38:30;;;;;;;15.87;15.37;;;;;;;-141.02;100.00;37813.78;5114954;28;20288;-69
2023/10/19 04:41:07;;;;;;;17.27;16.77;;;;;;;-141.02;100.00;38051.50;5115140;28;20325;-69
2023/10/19 04:43:35;;;;;;;16.07;15.57;;;;;;;-141.02;100.00;38141.59;5114818;28;20192;-69
2023/10/19 04:46:10;;;;;;;17.90;17.33;;;;;;;-141.02;100.00;38189.53;5115089;27;20189;-69
2023/10/19 04:48:39;;;;;;;18.10;17.50;;;;;;;-141.02;100.00;38256.63;5114471;28;20181;-69
2023/10/19 04:51:09;;;;;;;18.80;18.20;;;;;;;-141.02;100.00;38273.88;5115005;28;20202;-68
2023/10/19 04:53:36;;;;;;;19.10;18.50;;;;;;;-141.02;100.00;38398.50;5114984;27;20197;-72
2023/10/19 04:56:04;;;;;;;19.70;19.10;;;;;;;-141.02;100.00;38580.63;5114877;28;20229;-71
2023/10/19 04:58:31;;;;;;;17.20;16.70;;;;;;;-141.02;100.00;38797.28;5114940;28;20566;-69
2023/10/19 05:00:59;;;;;;;14.30;13.90;;;;;;;-141.02;100.00;38964.13;5115365;28;20231;-72
2023/10/19 05:03:27;;;;;;;21.17;20.47;;;;;;;-141.02;100.00;38994.78;5114511;28;20229;-65
2023/10/19 05:05:57;;;;;;;20.47;19.77;;;;;;;-141.02;100.00;39075.34;5115018;28;20612;-71
2023/10/19 05:08:25;;;;;;;18.17;17.57;;;;;;;-141.02;100.00;39148.19;5114428;28;20208;-71
2023/10/19 05:10:54;;;;;;;20.10;19.40;;;;;;;-141.02;100.00;39290.13;5114910;28;20240;-70
2023/10/19 05:13:21;;;;;;;18.80;18.20;;;;;;;-141.02;100.00;39478.06;5114562;28;20254;-71
2023/10/19 05:15:48;;;;;;;16.43;15.93;;;;;;;-141.02;100.00;39685.19;5114860;28;20280;-72
2023/10/19 05:18:15;;;;;;;14.60;14.20;;;;;;;-141.02;100.00;39830.94;5114549;28;20199;-71
2023/10/19 05:20:43;;;;;;;12.90;12.50;;;;;;;-141.02;100.00;39890.41;5114846;28;20316;-71
2023/10/19 05:23:10;;;;;;;11.40;11.10;;;;;;;-141.02;100.00;39844.38;5114110;28;20215;-72
2023/10/19 05:25:37;;;;;;;11.13;10.83;;;;;;;-141.02;100.00;39857.81;5114139;28;20215;-71
2023/10/19 05:28:06;;;;;;;9.87;9.57;;;;;;;-141.02;100.00;39738.88;5114500;27;20290;-71
2023/10/19 05:30:33;;;;;;;9.70;9.43;;;;;;;-141.02;100.00;39635.31;5114257;28;20197;-71
2023/10/19 05:33:01;;;;;;;9.97;9.67;;;;;;;-141.02;100.00;39545.19;5114248;28;20193;-72
2023/10/19 05:35:30;;;;;;;9.97;9.67;;;;;;;-141.02;100.00;39485.72;5114126;28;20204;-71
2023/10/19 05:37:58;;;;;;;11.53;11.23;;;;;;;-141.02;100.00;39435.88;5113819;28;20193;-64
2023/10/19 05:40:29;;;;;;;13.23;12.83;;;;;;;-141.02;100.00;39453.13;5113827;28;20256;-71
2023/10/19 05:42:57;;;;;;;13.77;13.37;;;;;;;-141.02;100.00;39451.22;5113735;28;20200;-71
2023/10/19 05:45:26;;;;;;;14.05;13.65;;;;;;;-141.02;100.00;39455.03;5114163;28;20630;-72
2023/10/19 05:47:53;;;;;;;16.17;15.67;;;;;;;-141.02;100.00;39487.66;5113671;28;20677;-72
2023/10/19 05:50:21;;;;;;;16.77;16.27;;;;;;;-141.02;100.00;39481.88;5113775;28;20199;-70
2023/10/19 05:52:48;;;;;;;16.70;16.20;;;;;;;-141.02;100.00;39493.41;5113841;28;20189;-71
2023/10/19 05:55:17;;;;;;;13.13;12.73;;;;;;;-141.02;100.00;39483.81;5113780;28;20216;-69
2023/10/19 05:57:44;;;;;;;13.40;13.00;;;;;;;-141.02;100.00;39504.91;5113449;28;20193;-73
2023/10/19 06:00:15;;;;;;;16.60;16.10;;;;;;;-141.02;100.00;39562.44;5112579;28;20757;-68
2023/10/19 06:02:44;;;;;;;18.07;17.47;;;;;;;-141.02;100.00;39520.25;5113490;28;20199;-71
2023/10/19 06:05:12;;;;;;;20.70;20.00;;;;;;;-141.02;100.00;39558.59;5113554;28;20201;-69
2023/10/19 06:07:39;;;;;;;17.80;17.20;;;;;;;-141.02;100.00;39596.97;5113484;28;20204;-71
2023/10/19 06:10:07;;;;;;;19.67;18.98;;;;;;;-141.02;100.00;39648.75;5113664;28;20574;-72
2023/10/19 06:12:37;;;;;;;28.30;27.10;;;;;;;-141.02;100.00;39662.16;5113540;27;20201;-72
2023/10/19 06:15:04;;;;;;;29.45;28.25;;;;;;;-141.02;100.00;39666.00;5113437;28;20197;-71
2023/10/19 06:17:31;;;;;;;29.87;28.57;;;;;;;-141.02;100.00;39673.69;5113478;28;20204;-70
2023/10/19 06:19:58;;;;;;;30.40;29.10;;;;;;;-141.02;100.00;39673.69;5113548;28;20229;-71
2023/10/19 06:22:26;;;;;;;32.80;31.40;;;;;;;-141.02;100.00;39627.66;5113499;28;20193;-72
2023/10/19 06:24:55;;;;;;;28.85;27.65;;;;;;;-141.02;100.00;39593.13;5113518;28;20709;-69
2023/10/19 06:27:23;;;;;;;26.30;25.30;;;;;;;-141.02;100.00;39570.13;5113007;28;20258;-70
2023/10/19 06:29:51;;;;;;;27.60;26.50;;;;;;;-141.02;100.00;39535.59;5112943;28;20197;-71
2023/10/19 06:32:18;;;;;;;28.13;26.95;;;;;;;-141.02;100.00;39495.31;5113147;28;20193;-71
2023/10/19 06:34:45;;;;;;;31.50;30.20;;;;;;;-141.02;100.00;39447.38;5112833;27;20250;-71
2023/10/19 06:37:12;;;;;;;28.60;27.40;;;;;;;-141.02;100.00;39447.38;5113221;28;20201;-71
2023/10/19 06:39:41;;;;;;;27.20;26.10;;;;;;;-141.02;100.00;39520.25;5112703;28;20733;-69
2023/10/19 06:42:15;;;;;;;26.57;25.57;;;;;;;-141.02;100.00;39558.59;5113168;28;20189;-72
2023/10/19 06:44:43;;;;;;;28.45;27.35;;;;;;;-141.02;100.00;39623.81;5112779;28;20599;-70
2023/10/19 06:47:13;;;;;;;25.73;24.73;;;;;;;-141.02;100.00;39623.81;5112718;28;20229;-71
2023/10/19 06:49:41;;;;;;;19.10;18.50;;;;;;;-141.02;100.00;39658.34;5112938;28;20237;-71
2023/10/19 06:52:11;;;;;;;20.90;20.20;;;;;;;-141.02;100.00;39742.72;5112756;28;20189;-71
2023/10/19 06:54:38;;;;;;;21.27;20.50;;;;;;;-141.02;100.00;39761.91;5112493;28;20573;-69
2023/10/19 06:57:07;;;;;;;23.25;22.35;;;;;;;-141.02;100.00;39846.28;5112576;28;20229;-71
2023/10/19 06:59:35;;;;;;;23.75;22.85;;;;;;;-141.02;100.00;39869.31;5112715;28;20660;-72
2023/10/19 07:02:02;;;;;;;27.35;26.25;;;;;;;-141.02;100.00;39760.00;5112477;28;20716;-71
2023/10/19 07:04:31;;;;;;;26.33;25.30;;;;;;;-141.02;100.00;39719.72;5112364;28;20197;-71
2023/10/19 07:06:58;;;;;;;28.10;27.00;;;;;;;-141.02;100.00;39681.34;5112408;28;20197;-71
2023/10/19 07:09:25;;;;;;;34.38;32.88;;;;;;;-141.02;100.00;39194.22;5112651;28;20620;-71
2023/10/19 07:11:54;;;;;;;35.40;33.80;;;;;;;-141.02;100.00;39619.97;5114736;28;20201;-70
2023/10/19 07:14:23;;;;;;;35.38;33.78;;;;;;;-141.02;100.00;39623.81;5117003;28;20197;-70
2023/10/19 07:16:52;;;;;;;32.95;31.55;;;;;;;-141.02;100.00;39566.28;5116886;28;20275;-71
2023/10/19 07:19:19;;;;;;;40.13;38.33;;;;;;;-141.02;100.00;39481.88;5116503;28;20193;-72
2023/10/19 07:21:53;;;;;;;32.78;31.38;;;;;;;-141.02;100.00;39558.59;5116746;28;20319;-71
2023/10/19 07:24:23;;;;;;;37.15;35.47;;;;;;;-141.02;100.00;39581.63;5116503;28;20659;-71
2023/10/19 07:27:04;;;;;;;33.75;32.25;;;;;;;-141.02;100.00;39807.94;5116916;28;20185;-71
2023/10/19 07:29:33;;;;;;;35.45;33.85;;;;;;;-141.02;100.00;39917.25;5116729;28;20276;-71
2023/10/19 07:32:00;;;;;;;40.95;39.05;;;;;;;-141.02;100.00;39915.34;5116346;28;20289;-70
2023/10/19 07:34:29;;;;;;;39.63;37.72;;;;;;;-141.02;100.00;39949.88;5116469;27;20205;-71
2023/10/19 07:36:59;;;;;;;40.90;38.90;;;;;;;-141.02;100.00;39965.22;5116354;28;20228;-70
2023/10/19 07:39:29;;;;;;;42.08;39.97;;;;;;;-141.02;100.00;39907.69;5116828;28;20185;-70
2023/10/19 07:41:56;;;;;;;42.38;40.25;;;;;;;-141.02;100.00;39903.84;5116699;28;20235;-68
2023/10/19 07:44:23;;;;;;;40.13;38.13;;;;;;;-141.02;100.00;39673.69;5116287;28;20225;-70
2023/10/19 07:46:50;;;;;;;40.83;38.75;;;;;;;-141.02;100.00;39583.53;5115706;28;20193;-71
2023/10/19 07:49:18;;;;;;;39.47;37.47;;;;;;;-141.02;100.00;39566.28;5116383;28;20720;-70
2023/10/19 07:51:49;;;;;;;28.25;26.98;;;;;;;-141.02;100.00;39930.69;5115997;28;20254;-70
2023/10/19 07:54:18;;;;;;;34.70;33.00;;;;;;;-141.02;100.00;39700.53;5116005;28;20212;-71
2023/10/19 07:56:46;;;;;;;14.73;14.15;;;;;;;-141.02;100.00;39781.09;5115617;28;20236;-71
2023/10/19 07:59:13;;;;;;;13.80;13.30;;;;;;;-141.02;100.00;39976.72;5115892;28;20194;-68
2023/10/19 08:01:40;;;;;;;13.55;13.05;;;;;;;-141.02;100.00;39800.25;5115448;28;20232;-70
2023/10/19 08:04:07;;;;;;;14.02;13.43;;;;;;;-141.02;100.00;39957.53;5116501;28;20683;-67
2023/10/19 08:06:34;;;;;;;14.80;14.20;;;;;;;-141.02;100.00;40076.47;5116053;27;20193;-70
2023/10/19 08:09:04;;;;;;;15.80;15.10;;;;;;;-141.02;100.00;40099.50;5115906;28;20199;-70
2023/10/19 08:11:33;;;;;;;16.80;16.00;;;;;;;-141.02;100.00;40120.59;5116025;28;20247;-70
2023/10/19 08:14:01;;;;;;;16.48;15.68;;;;;;;-141.02;100.00;40212.66;5115479;28;20197;-66
2023/10/19 08:16:28;;;;;;;16.77;15.98;;;;;;;-141.02;100.00;40199.22;5115761;28;20201;-70
2023/10/19 08:18:55;;;;;;;17.05;16.25;;;;;;;-141.02;100.00;40193.47;5116033;27;20201;-71
2023/10/19 08:21:23;;;;;;;16.67;15.88;;;;;;;-141.02;100.00;40045.78;5115676;28;20251;-69
2023/10/19 08:23:50;;;;;;;16.95;16.15;;;;;;;-141.02;100.00;40210.75;5114899;28;20583;-69
2023/10/19 08:26:17;;;;;;;16.65;15.85;;;;;;;-141.02;100.00;40153.19;5115257;28;20234;-69
2023/10/19 08:28:45;;;;;;;35.75;33.95;;;;;;;-141.02;100.00;40266.38;5115566;28;20723;-69
2023/10/19 08:31:12;;;;;;;34.83;33.10;;;;;;;-141.02;100.00;40287.47;5115314;28;20189;-70
2023/10/19 08:33:41;;;;;;;48.20;45.55;;;;;;;-141.02;100.00;40379.56;5115302;28;20193;-70
2023/10/19 08:36:16;;;;;;;36.33;34.45;;;;;;;-141.02;100.00;40331.59;5114938;28;20195;-65
2023/10/19 08:38:44;;;;;;;46.60;44.03;;;;;;;-141.02;100.00;40364.22;5115363;28;20192;-67
2023/10/19 08:41:11;;;;;;;46.85;44.25;;;;;;;-141.02;100.00;40410.25;5114736;28;20231;-67
2023/10/19 08:43:39;;;;;;;47.08;44.47;;;;;;;-141.02;100.00;40270.22;5115126;28;20621;-70
2023/10/19 08:46:08;;;;;;;45.58;43.08;;;;;;;-141.02;100.00;40341.19;5114998;28;20194;-69
2023/10/19 08:48:36;;;;;;;45.72;43.28;;;;;;;-141.02;100.00;40298.97;5115107;28;20650;-69
2023/10/19 08:51:09;;;;;;;46.28;43.78;;;;;;;-141.02;100.00;40310.50;5114594;28;20197;-69
2023/10/19 08:53:40;;;;;;;47.65;44.97;;;;;;;-141.02;100.00;40345.03;5114540;28;20562;-69
2023/10/19 08:56:08;;;;;;;47.75;45.05;;;;;;;-141.02;100.00;40316.25;5114592;28;20311;-69
2023/10/19 08:58:36;;;;;;;44.85;42.35;;;;;;;-141.02;100.00;40582.91;5114596;28;20197;-69
2023/10/19 09:01:09;;;;;;;40.50;38.35;;;;;;;-141.02;100.00;40617.44;5114650;28;20311;-70
2023/10/19 09:03:38;;;;;;;48.10;45.45;;;;;;;-141.02;93.79;40688.44;5114309;28;20280;-70
2023/10/19 09:06:06;;;;;;;50.90;48.03;;;;;;;-141.02;91.52;40836.16;5114403;28;20572;-69
2023/10/19 09:08:46;;;;;;;49.78;46.97;;;;;;;-141.02;86.80;40855.34;5114580;28;20201;-69
2023/10/19 09:11:13;;;;;;;49.72;46.92;;;;;;;-141.02;85.10;40951.28;5114522;28;20189;-70
2023/10/19 09:13:48;;;;;;;51.13;48.28;;;;;;;-141.02;84.05;40772.84;5114490;28;20545;-67
2023/10/19 09:16:20;;;;;;;48.67;45.97;;;;;;;-141.02;84.90;40730.63;5114566;28;20247;-65
2023/10/19 09:18:49;;;;;;;48.15;45.45;;;;;;;-141.02;85.09;40751.72;5114063;28;20189;-69
2023/10/19 09:21:25;;;;;;;48.38;45.72;;;;;;;-141.02;85.34;40803.53;5115068;28;20232;-69
2023/10/19 09:23:52;;;;;;;39.30;37.30;;;;;;;-141.02;87.41;40767.09;5113989;28;20271;-69
2023/10/19 09:26:21;;;;;;;38.78;36.88;;;;;;;-141.02;86.58;40838.06;5113884;28;20237;-70
2023/10/19 09:28:50;;;;;;;50.97;48.28;;;;;;;-141.02;85.80;40884.13;5113935;28;20613;-69
2023/10/19 09:31:18;;;;;;;49.65;46.92;;;;;;;-141.02;84.87;41120.13;5113868;28;20201;-69
2023/10/19 09:33:47;;;;;;;51.95;49.08;;;;;;;-141.02;79.72;41235.25;5113735;28;20197;-69
2023/10/19 09:36:16;;;;;;;51.63;48.72;;;;;;;-141.02;76.93;41177.69;5113071;28;20197;-67
2023/10/19 09:38:48;;;;;;;53.65;50.65;;;;;;;-141.02;76.82;41074.06;5113671;28;20197;-69
2023/10/19 09:41:20;;;;;;;50.55;47.75;;;;;;;-141.02;75.03;41227.56;5113718;28;20315;-69
2023/10/19 09:43:48;;;;;;;48.00;45.45;;;;;;;-141.02;77.41;41145.06;5113607;28;20197;-69
2023/10/19 09:46:22;;;;;;;53.70;50.80;;;;;;;-141.02;76.42;41016.50;5113448;28;20193;-69
2023/10/19 09:48:50;;;;;;;52.78;49.88;;;;;;;-141.02;77.03;41026.09;5113501;27;20195;-69
2023/10/19 09:51:20;;;;;;;51.97;49.08;;;;;;;-141.02;77.22;41077.91;5113522;28;20280;-66
2023/10/19 09:53:52;;;;;;;51.97;49.08;;;;;;;-141.02;75.36;41089.41;5113326;28;20565;-69
2023/10/19 09:56:26;;;;;;;51.60;48.70;;;;;;;-141.02;75.96;41104.78;5113449;28;20228;-66
2023/10/19 09:58:59;;;;;;;47.75;45.05;;;;;;;-141.02;76.12;41194.94;5113670;28;20223;-68
2023/10/19 10:01:26;;;;;;;48.60;45.90;;;;;;;-141.02;73.90;41070.22;5113400;28;20645;-68
2023/10/19 10:03:55;;;;;;;49.25;46.47;;;;;;;-141.02;73.38;41072.16;5113292;28;20197;-67
2023/10/19 10:06:30;;;;;;;49.25;46.45;;;;;;;-141.02;75.18;41369.56;5113704;28;20242;-68
2023/10/19 10:09:00;;;;;;;49.25;46.45;;;;;;;-141.02;72.63;41442.50;5113295;28;20184;-68
2023/10/19 10:11:28;;;;;;;48.53;45.83;;;;;;;-141.02;72.66;41392.59;5113189;28;20724;-68
2023/10/19 10:13:57;;;;;;;49.60;46.80;;;;;;;-141.02;70.45;41465.50;5113382;28;20193;-65
2023/10/19 10:16:26;;;;;;;49.00;46.28;;;;;;;-141.02;68.86;41519.25;5113418;28;20204;-68
2023/10/19 10:18:58;;;;;;;48.20;45.50;;;;;;;-141.02;69.35;41365.72;5112984;28;20207;-67
2023/10/19 10:21:26;;;;;;;53.97;51.03;;;;;;;-141.02;67.98;41484.72;5113278;28;20217;-69
2023/10/19 10:23:57;;;;;;;19.10;18.10;;;;;;;-141.02;67.32;41505.81;5112972;28;20200;-68
2023/10/19 10:26:26;;;;;;;18.98;17.98;;;;;;;-141.02;67.38;41549.94;5113286;28;20262;-69
2023/10/19 10:29:19;;;;;;;18.63;17.73;;;;;;;-141.02;68.01;41534.59;5113206;28;20201;-67
2023/10/19 10:31:47;;;;;;;18.60;17.70;;;;;;;-141.02;67.28;41578.75;5113242;28;20224;-69
2023/10/19 10:34:44;;;;;;;18.55;17.65;;;;;;;-141.02;68.38;41619.03;5113358;28;20227;-69
2023/10/19 10:37:13;;;;;;;18.73;17.83;;;;;;;-141.02;67.04;41601.75;5113055;28;20189;-69
2023/10/19 10:39:44;;;;;;;18.52;17.63;;;;;;;-141.02;66.10;41609.44;5112739;28;20193;-69
2023/10/19 10:42:12;;;;;;;18.85;17.88;;;;;;;-141.02;67.69;41607.53;5112724;28;20216;-68
2023/10/19 10:44:43;;;;;;;18.40;17.50;;;;;;;-141.02;68.41;41653.59;5112713;28;20739;-69
2023/10/19 10:47:11;;;;;;;18.80;17.85;;;;;;;-141.02;66.21;41682.38;5112619;28;20182;-69
2023/10/19 10:49:49;;;;;;;18.17;17.27;;;;;;;-141.02;65.79;41686.19;5112844;28;20200;-69
2023/10/19 10:52:28;;;;;;;18.85;17.95;;;;;;;-141.02;66.89;41753.38;5112586;28;20254;-69
2023/10/19 10:54:57;;;;;;;19.00;18.10;;;;;;;-141.02;64.79;41791.75;5112914;28;20228;-69
2023/10/19 10:57:32;;;;;;;18.52;17.63;;;;;;;-141.02;65.06;41728.44;5112310;28;20224;-69
2023/10/19 11:00:07;;;;;;;19.27;18.27;;;;;;;-141.02;65.26;41787.91;5112557;28;20196;-69
2023/10/19 11:02:36;;;;;;;18.73;17.83;;;;;;;-141.02;63.71;41818.63;5112320;28;20694;-68
2023/10/19 11:05:04;;;;;;;18.35;17.45;;;;;;;-141.02;64.01;41841.66;5112690;28;20618;-68
2023/10/19 11:07:31;;;;;;;18.80;17.90;;;;;;;-141.02;63.98;41845.50;5112716;28;20197;-69
2023/10/19 11:10:01;;;;;;;18.85;17.88;;;;;;;-141.02;62.90;41833.97;5112357;28;20193;-69
2023/10/19 11:12:29;;;;;;;18.80;17.90;;;;;;;-141.02;64.22;41868.53;5112607;28;20687;-68
2023/10/19 11:14:57;;;;;;;18.67;17.77;;;;;;;-141.02;63.96;41870.44;5112213;28;20197;-69
2023/10/19 11:17:28;;;;;;;18.90;17.90;;;;;;;-141.02;63.57;41870.44;5112306;28;20681;-69
2023/10/19 11:19:57;;;;;;;18.75;17.85;;;;;;;-141.02;62.49;41912.66;5111966;28;20188;-67
2023/10/19 11:22:26;;;;;;;18.65;17.75;;;;;;;-141.02;63.91;41889.63;5112843;28;20266;-67
2023/10/19 11:24:54;;;;;;;18.80;17.90;;;;;;;-141.02;64.22;41887.72;5112689;28;20204;-68
2023/10/19 11:27:27;;;;;;;19.10;18.10;;;;;;;-141.02;65.58;41872.38;5112751;28;20189;-67
2023/10/19 11:29:58;;;;;;;18.73;17.83;;;;;;;-141.02;67.17;41895.38;5112323;28;20268;-68
2023/10/19 11:32:25;;;;;;;18.45;17.55;;;;;;;-141.02;65.87;41891.56;5112408;28;20250;-68
2023/10/19 11:34:54;;;;;;;18.50;17.60;;;;;;;-141.02;64.28;41933.78;5112107;28;20280;-67
2023/10/19 11:37:21;;;;;;;39.90;37.78;;;;;;;-141.02;64.72;41949.13;5112429;28;20197;-68
2023/10/19 11:39:49;;;;;;;69.15;65.63;;;;;;;-141.02;64.27;41976.00;5112470;28;20273;-69
2023/10/19 11:42:18;;;;;;;64.22;60.83;;;;;;;-141.02;63.04;41995.19;5112106;28;20316;-68
2023/10/19 11:44:46;;;;;;;47.80;45.20;;;;;;;-141.02;62.54;42033.56;5112029;28;20193;-67
2023/10/19 11:47:14;;;;;;;51.30;48.50;;;;;;;-141.02;62.27;42033.56;5112747;28;20193;-67
2023/10/19 11:49:41;;;;;;;53.95;50.95;;;;;;;-141.02;62.72;42018.22;5112297;28;20194;-69
2023/10/19 11:52:09;;;;;;;52.03;49.13;;;;;;;-141.02;62.91;42041.25;5112252;28;20716;-68
2023/10/19 11:54:36;;;;;;;50.88;48.08;;;;;;;-141.02;62.20;42048.94;5112201;28;20193;-68
2023/10/19 11:57:03;;;;;;;51.13;48.33;;;;;;;-141.02;61.93;42075.81;5111657;28;20239;-67
2023/10/19 11:59:30;;;;;;;47.90;45.30;;;;;;;-141.02;61.60;42121.88;5114837;28;20193;-66
2023/10/19 12:02:00;;;;;;;48.80;46.17;;;;;;;-141.02;61.07;42098.84;5115961;28;20220;-68
2023/10/19 12:04:27;;;;;;;49.70;47.00;;;;;;;-141.02;61.84;42096.91;5115688;27;20204;-68
2023/10/19 12:06:55;;;;;;;48.47;45.88;;;;;;;-141.02;61.40;42114.19;5115923;28;20201;-67
2023/10/19 12:09:24;;;;;;;48.88;46.25;;;;;;;-141.02;62.68;42093.06;5115562;28;20197;-68
2023/10/19 12:11:54;;;;;;;51.67;48.78;;;;;;;-141.02;62.50;42133.38;5115466;28;20626;-69
2023/10/19 12:14:22;;;;;;;49.38;46.67;;;;;;;-141.02;61.99;42139.13;5115823;28;20189;-68
2023/10/19 12:16:49;;;;;;;53.25;50.25;;;;;;;-141.02;61.57;42169.84;5115965;28;20219;-67
2023/10/19 12:19:18;;;;;;;47.00;44.50;;;;;;;-141.02;63.96;42073.88;5115358;28;20224;-68
2023/10/19 12:21:46;;;;;;;52.60;49.60;;;;;;;-141.02;64.96;42066.22;5115233;28;20217;-67
2023/10/19 12:24:15;;;;;;;51.20;48.40;;;;;;;-141.02;65.46;42125.69;5115614;28;20225;-69
2023/10/19 12:26:42;;;;;;;46.92;44.42;;;;;;;-141.02;63.44;42110.34;5115183;28;20195;-69